CW8826 Weather Reports


Display with metric or nautical units.
time (UTC)temp
F
wind
direction
speed
MPH
gust
MPH
rain 1hr
in
rain 24hr
in
rain mn
in
humidity
%
barometer
mb
20240518062516 57 113 9.0 14.0 0.00 0.00 0.00 41 1014.1
20240518061516 58 113 7.0 14.0 0.00 0.00 0.00 39 1014.0
20240518060516 58 113 5.0 7.0 0.00 0.00 0.00 40 1014.1
20240518060016 59 113 3.0 9.0 0.00 0.00 0.00 40 1014.3
20240518055037 59 113 4.0 11.0 0.00 0.00 0.00 39 1013.8
20240518054037 58 135 5.0 11.0 0.00 0.00 0.00 41 1013.7
20240518053037 59 113 8.0 13.0 0.00 0.00 0.00 41 1013.7
20240518052017 58 113 6.0 12.0 0.00 0.00 0.00 42 1013.2
20240518051037 59 113 6.0 9.0 0.00 0.00 0.00 41 1013.1
20240518050137 59 113 7.0 13.0 0.00 0.00 0.00 40 1013.0
20240518045017 60 113 5.0 11.0 0.00 0.00 0.00 39 1012.8
20240518044017 60 113 6.0 11.0 0.00 0.00 0.00 39 1012.7
20240518043017 61 113 6.0 11.0 0.00 0.00 0.00 39 1012.4
20240518042017 61 113 4.0 6.0 0.00 0.00 0.00 38 1012.3
20240518041017 61 113 6.0 13.0 0.00 0.00 0.00 40 1012.1
20240518040017 62 113 4.0 8.0 0.00 0.00 0.00 38 1011.8
20240518035017 63 135 4.0 8.0 0.00 0.00 0.00 37 1011.6
20240518034017 64 113 2.0 6.0 0.00 0.00 0.00 36 1011.8
20240518033038 64 135 4.0 7.0 0.00 0.00 0.00 36 1011.5
20240518032017 65 113 1.0 6.0 0.00 0.00 0.00 34 1011.6
20240518031017 66 0.0 0.0 0.00 0.00 0.00 32 1011.3
20240518030016 67 0.0 0.0 0.00 0.00 0.00 31 1011.2
20240518025016 68 23 2.0 5.0 0.00 0.00 0.00 29 1011.0
20240518024016 69 0 3.0 7.0 0.00 0.00 0.00 29 1011.2
20240518023017 70 338 3.0 7.0 0.00 0.00 0.00 30 1010.8
20240518022017 71 293 1.0 5.0 0.00 0.00 0.00 28 1010.6
20240518021017 72 270 1.0 4.0 0.00 0.00 0.00 27 1010.9
20240518020016 73 293 2.0 6.0 0.00 0.00 0.00 27 1010.8
20240518015017 74 270 1.0 3.0 0.00 0.00 0.00 24 1011.0
20240518014017 74 315 4.0 9.0 0.00 0.00 0.00 24 1011.1
20240518013017 74 293 1.0 3.0 0.00 0.00 0.00 25 1010.9
20240518012016 74 315 5.0 11.0 0.00 0.00 0.00 25 1011.0
20240518011016 74 315 5.0 11.0 0.00 0.00 0.00 25 1011.0
20240518010017 74 315 6.0 12.0 0.00 0.00 0.00 24 1010.9
20240518005016 75 315 6.0 12.0 0.00 0.00 0.00 24 1010.7
20240518004016 76 315 5.0 11.0 0.00 0.00 0.00 24 1010.7
20240518003016 76 293 2.0 8.0 0.00 0.00 0.00 24 1010.9
20240518002017 76 315 4.0 10.0 0.00 0.00 0.00 23 1011.1
20240518001017 76 315 2.0 7.0 0.00 0.00 0.00 23 1010.7
20240518000018 76 315 4.0 8.0 0.00 0.00 0.00 23 1011.0
20240517235016 76 315 4.0 9.0 0.00 0.00 0.00 23 1010.9
20240517234017 76 270 2.0 5.0 0.00 0.00 0.00 23 1011.0
20240517233016 76 270 2.0 14.0 0.00 0.00 0.00 23 1011.0
20240517232016 76 315 3.0 10.0 0.00 0.00 0.00 24 1011.1
20240517231016 76 315 2.0 5.0 0.00 0.00 0.00 25 1011.1
20240517230017 76 23 6.0 14.0 0.00 0.00 0.00 24 1011.3
20240517225016 76 270 3.0 7.0 0.00 0.00 0.00 23 1011.2
20240517224017 76 315 4.0 9.0 0.00 0.00 0.00 25 1011.4
20240517223016 76 23 2.0 9.0 0.00 0.00 0.00 23 1011.3
20240517222016 75 113 2.0 6.0 0.00 0.00 0.00 24 1011.4
20240517221017 75 248 5.0 8.0 0.00 0.00 0.00 24 1011.6
20240517220016 75 315 5.0 10.0 0.00 0.00 0.00 24 1011.7
20240517215016 75 23 2.0 6.0 0.00 0.00 0.00 25 1011.4
20240517214016 75 293 3.0 6.0 0.00 0.00 0.00 25 1011.9
20240517213016 76 315 2.0 6.0 0.00 0.00 0.00 25 1012.0
20240517212016 75 270 2.0 7.0 0.00 0.00 0.00 26 1011.7
20240517211016 75 0 3.0 6.0 0.00 0.00 0.00 25 1012.2
20240517210017 74 315 4.0 9.0 0.00 0.00 0.00 25 1011.7
20240517205017 75 315 5.0 12.0 0.00 0.00 0.00 25 1012.1
20240517204018 74 270 4.0 8.0 0.00 0.00 0.00 27 1012.3
20240517203017 74 315 6.0 13.0 0.00 0.00 0.00 27 1012.4
20240517202016 74 315 4.0 9.0 0.00 0.00 0.00 28 1012.4
20240517201016 74 315 3.0 9.0 0.00 0.00 0.00 27 1012.1
20240517200037 74 315 4.0 12.0 0.00 0.00 0.00 27 1012.5
20240517195016 73 315 5.0 11.0 0.00 0.00 0.00 28 1012.3
20240517194016 73 270 3.0 10.0 0.00 0.00 0.00 29 1012.4
20240517193016 71 315 6.0 11.0 0.00 0.00 0.00 29 1012.5
20240517192016 73 315 7.0 14.0 0.00 0.00 0.00 28 1012.4
20240517191017 74 315 5.0 14.0 0.00 0.00 0.00 26 1012.7
20240517190017 74 315 6.0 17.0 0.00 0.00 0.00 26 1012.9
20240517185036 74 270 4.0 12.0 0.00 0.00 0.00 26 1012.8
20240517184016 75 270 3.0 9.0 0.00 0.00 0.00 27 1012.9
20240517183036 74 270 4.0 9.0 0.00 0.00 0.00 26 1012.5
20240517182017 74 270 4.0 9.0 0.00 0.00 0.00 25 1012.5
20240517181018 73 248 5.0 9.0 0.00 0.00 0.00 26 1012.1
20240517180017 73 225 3.0 6.0 0.00 0.00 0.00 26 1012.3
20240517175016 72 248 4.0 8.0 0.00 0.00 0.00 28 1012.2
20240517174016 72 225 4.0 7.0 0.00 0.00 0.00 27 1012.3
20240517173016 72 248 3.0 7.0 0.00 0.00 0.00 29 1012.3
20240517172036 71 293 1.0 3.0 0.00 0.00 0.00 29 1012.2
20240517171036 70 0.0 2.0 0.00 0.00 0.00 32 1012.2
20240517170016 69 0 1.0 2.0 0.00 0.00 0.00 34 1012.0
20240517165459 69 0.0 0.0 0.00 0.00 0.00 34 1012.0
20240517164517 68 315 2.0 4.0 0.00 0.00 0.00 35 1011.7
20240517163517 68 23 3.0 7.0 0.00 0.00 0.00 35 1011.8
20240517162516 67 315 2.0 4.0 0.00 0.00 0.00 36 1011.5
20240517161516 67 315 1.0 4.0 0.00 0.00 0.00 35 1011.5
20240517160516 66 315 1.0 4.0 0.00 0.00 0.00 39 1011.1
20240517155516 66 23 1.0 4.0 0.00 0.00 0.00 40 1011.1
20240517154517 66 315 3.0 6.0 0.00 0.00 0.00 39 1011.1
20240517153516 67 0 2.0 4.0 0.00 0.00 0.00 38 1011.5
20240517152536 67 113 2.0 4.0 0.00 0.00 0.00 34 1011.5
20240517151536 68 113 1.0 3.0 0.00 0.00 0.00 36 1011.9
20240517150517 67 0.0 1.0 0.00 0.00 0.00 41 1011.8
20240517145516 65 0.0 0.0 0.00 0.00 0.00 41 1011.5
20240517144517 66 113 1.0 3.0 0.00 0.00 0.00 39 1011.8
20240517143516 64 90 1.0 3.0 0.00 0.00 0.00 36 1011.8
20240517142516 62 0.0 1.0 0.00 0.00 0.00 38 1011.6
20240517141536 61 90 1.0 2.0 0.00 0.00 0.00 37 1011.9
20240517140516 61 68 1.0 3.0 0.00 0.00 0.00 37 1012.5
20240517135516 61 68 1.0 4.0 0.00 0.00 0.00 38 1012.5
20240517134516 63 0.0 0.0 0.00 0.00 0.00 38 1013.0
20240517133516 63 0.0 1.0 0.00 0.00 0.00 38 1013.0
20240517132516 62 68 1.0 3.0 0.00 0.00 0.00 36 1012.6
20240517131516 63 68 1.0 2.0 0.00 0.00 0.00 33 1012.6
20240517130516 63 68 1.0 6.0 0.00 0.00 0.00 31 1012.4
20240517125516 63 113 1.0 5.0 0.00 0.00 0.00 30 1012.2
20240517124516 62 113 4.0 9.0 0.00 0.00 0.00 32 1012.3
20240517123516 62 135 4.0 14.0 0.00 0.00 0.00 32 1012.2
20240517122517 63 113 4.0 13.0 0.00 0.00 0.00 31 1012.0
20240517121516 60 135 4.0 14.0 0.00 0.00 0.00 34 1011.8
20240517120516 62 113 3.0 8.0 0.00 0.00 0.00 33 1012.1
20240517115516 61 158 3.0 4.0 0.00 0.00 0.00 34 1011.9
20240517114516 62 113 7.0 13.0 0.00 0.00 0.00 32 1011.9
20240517113516 62 113 8.0 17.0 0.00 0.00 0.00 33 1012.3
20240517112517 62 113 5.0 11.0 0.00 0.00 0.00 33 1012.3
20240517111516 63 113 6.0 12.0 0.00 0.00 0.00 32 1012.3
20240517110516 63 90 5.0 9.0 0.00 0.00 0.00 32 1012.4
20240517105516 63 68 5.0 13.0 0.00 0.00 0.00 32 1012.5
20240517104516 62 90 8.0 15.0 0.00 0.00 0.00 34 1012.1
20240517103538 63 113 5.0 9.0 0.00 0.00 0.00 32 1012.4
20240517102520 62 113 8.0 17.0 0.00 0.00 0.00 34 1012.1
20240517101516 63 113 3.0 7.0 0.00 0.00 0.00 33 1012.4
20240517100516 63 90 5.0 14.0 0.00 0.00 0.00 32 1012.3
20240517095516 62 90 10.0 17.0 0.00 0.00 0.00 35 1012.0
20240517094516 62 68 11.0 19.0 0.00 0.00 0.00 34 1012.1
20240517093516 63 90 9.0 15.0 0.00 0.00 0.00 33 1012.2
20240517092516 63 113 9.0 17.0 0.00 0.00 0.00 32 1012.2
20240517091537 63 68 9.0 18.0 0.00 0.00 0.00 33 1012.5
20240517090536 62 113 11.0 18.0 0.00 0.00 0.00 34 1012.3
20240517085536 62 90 12.0 19.0 0.00 0.00 0.00 34 1012.4
20240517084516 62 90 10.0 19.0 0.00 0.00 0.00 33 1012.3
20240517083516 62 90 11.0 17.0 0.00 0.00 0.00 33 1012.5
20240517082556 62 113 10.0 19.0 0.00 0.00 0.00 33 1012.2
20240517081516 62 90 10.0 18.0 0.00 0.00 0.00 33 1012.4
20240517080516 63 113 10.0 16.0 0.00 0.00 0.00 32 1012.7
20240517075516 62 90 11.0 17.0 0.00 0.00 0.00 32 1012.4
20240517074536 62 90 10.0 17.0 0.00 0.00 0.00 33 1012.4
20240517073536 63 113 9.0 16.0 0.00 0.00 0.00 32 1012.5
20240517072536 62 90 4.0 12.0 0.00 0.00 0.00 32 1012.7
20240517071516 63 113 5.0 10.0 0.00 0.00 0.00 31 1012.6
20240517070516 63 90 8.0 15.0 0.00 0.00 0.00 31 1012.7
20240517065516 64 90 7.0 13.0 0.00 0.00 0.00 30 1012.7
20240517064516 64 90 9.0 17.0 0.00 0.00 0.00 31 1012.6
20240517063516 63 90 11.0 20.0 0.00 0.00 0.00 31 1012.7